createdAt,value
2022-11-03T00:02:00.782Z,2.92
2022-11-03T00:04:30.831Z,2.50
2022-11-03T00:06:59.396Z,2.88
2022-11-03T00:09:28.000Z,2.13
2022-11-03T00:11:56.485Z,2.60
2022-11-03T00:14:25.048Z,2.47
2022-11-03T00:16:54.532Z,3.00
2022-11-03T00:19:22.983Z,3.13
2022-11-03T00:21:53.289Z,3.03
2022-11-03T00:24:21.812Z,2.95
2022-11-03T00:26:50.301Z,2.63
2022-11-03T00:29:18.853Z,3.35
2022-11-03T00:31:47.311Z,2.22
2022-11-03T00:34:15.775Z,2.60
2022-11-03T00:36:45.301Z,2.55
2022-11-03T00:39:15.241Z,1.95
2022-11-03T00:41:43.715Z,2.38
2022-11-03T00:44:13.345Z,2.67
2022-11-03T00:46:41.916Z,2.55
2022-11-03T00:49:12.680Z,2.92
2022-11-03T00:51:41.162Z,3.25
2022-11-03T00:54:09.879Z,3.28
2022-11-03T00:56:41.263Z,2.88
2022-11-03T00:59:11.135Z,3.25
2022-11-03T01:01:48.065Z,3.03
2022-11-03T01:04:35.753Z,2.60
2022-11-03T01:07:06.047Z,2.72
2022-11-03T01:09:37.510Z,3.03
2022-11-03T01:12:09.442Z,3.00
2022-11-03T01:14:39.523Z,3.28
2022-11-03T01:17:09.458Z,3.08
2022-11-03T01:19:38.072Z,2.60
2022-11-03T01:22:10.625Z,3.20
2022-11-03T01:24:40.365Z,2.88
2022-11-03T01:27:10.753Z,3.00
2022-11-03T01:29:39.272Z,2.83
2022-11-03T01:32:08.384Z,2.72
2022-11-03T01:34:37.302Z,3.13
2022-11-03T01:37:06.094Z,3.05
2022-11-03T01:39:34.624Z,3.10
2022-11-03T01:42:03.273Z,3.00
2022-11-03T01:44:36.104Z,3.38
2022-11-03T01:47:13.030Z,2.67
2022-11-03T01:49:46.225Z,2.78
2022-11-03T01:52:19.366Z,2.67
2022-11-03T01:54:52.787Z,2.53
2022-11-03T01:57:26.598Z,2.92
2022-11-03T01:59:59.002Z,2.92
2022-11-03T02:02:28.457Z,2.33
2022-11-03T02:05:01.842Z,2.83
2022-11-03T02:07:36.146Z,2.58
2022-11-03T02:10:06.277Z,3.00
2022-11-03T02:12:35.692Z,2.63
2022-11-03T02:15:09.166Z,2.33
2022-11-03T02:17:38.998Z,2.92
2022-11-03T02:20:11.170Z,2.75
2022-11-03T02:23:09.542Z,2.40
2022-11-03T02:25:48.088Z,2.65
2022-11-03T02:28:19.671Z,2.90
2022-11-03T02:30:58.472Z,3.10
2022-11-03T02:33:49.870Z,2.70
2022-11-03T02:36:23.286Z,2.90
2022-11-03T02:38:57.348Z,2.80
2022-11-03T02:41:28.563Z,3.08
2022-11-03T02:44:00.986Z,3.05
2022-11-03T02:46:32.691Z,2.53
2022-11-03T02:49:01.202Z,2.42
2022-11-03T02:51:29.848Z,2.85
2022-11-03T02:54:07.094Z,2.97
2022-11-03T02:56:41.337Z,2.63
2022-11-03T02:59:12.926Z,2.08
2022-11-03T03:01:47.996Z,3.35
2022-11-03T03:04:22.149Z,2.65
2022-11-03T03:06:55.552Z,2.20
2022-11-03T03:09:27.344Z,2.47
2022-11-03T03:11:59.868Z,2.30
2022-11-03T03:14:32.357Z,2.20
2022-11-03T03:17:02.966Z,2.20
2022-11-03T03:19:43.020Z,2.30
2022-11-03T03:22:18.902Z,2.10
2022-11-03T03:24:52.834Z,2.75
2022-11-03T03:27:27.517Z,2.88
2022-11-03T03:29:59.866Z,2.78
2022-11-03T03:32:32.521Z,2.42
2022-11-03T03:35:03.676Z,2.38
2022-11-03T03:37:34.456Z,2.50
2022-11-03T03:40:08.469Z,2.78
2022-11-03T03:42:39.755Z,2.70
2022-11-03T03:45:11.305Z,2.22
2022-11-03T03:47:40.235Z,2.60
2022-11-03T03:50:09.610Z,2.58
2022-11-03T03:52:38.564Z,2.40
2022-11-03T03:55:15.396Z,2.63
2022-11-03T03:57:45.729Z,2.90
2022-11-03T04:00:16.030Z,2.83
2022-11-03T04:02:44.652Z,2.85
2022-11-03T04:05:13.240Z,2.75
2022-11-03T04:07:51.541Z,2.38
2022-11-03T04:10:25.132Z,2.35
2022-11-03T04:13:12.499Z,2.47
2022-11-03T04:15:57.803Z,2.78
2022-11-03T04:18:43.575Z,2.33
2022-11-03T04:21:31.699Z,2.67
2022-11-03T04:24:01.224Z,2.47
2022-11-03T04:26:30.323Z,2.92
2022-11-03T04:29:03.095Z,2.28
2022-11-03T04:31:36.159Z,2.45
2022-11-03T04:34:11.205Z,2.28
2022-11-03T04:36:40.304Z,2.40
2022-11-03T04:39:18.166Z,2.78
2022-11-03T04:41:47.272Z,2.45
2022-11-03T04:44:17.548Z,2.30
2022-11-03T04:46:46.961Z,2.38
2022-11-03T04:49:22.664Z,2.80
2022-11-03T04:51:51.487Z,2.50
2022-11-03T04:54:22.730Z,2.60
2022-11-03T04:56:51.365Z,3.67
2022-11-03T04:59:21.461Z,2.83
2022-11-03T05:01:50.171Z,2.85
2022-11-03T05:04:19.901Z,2.85
2022-11-03T05:06:51.927Z,2.78
2022-11-03T05:09:25.486Z,2.80
2022-11-03T05:11:54.211Z,3.30
2022-11-03T05:14:26.819Z,2.75
2022-11-03T05:16:57.203Z,3.47
2022-11-03T05:19:31.596Z,2.72
2022-11-03T05:22:01.974Z,2.70
2022-11-03T05:24:32.042Z,2.65
2022-11-03T05:27:01.257Z,2.80
2022-11-03T05:29:36.771Z,2.85
2022-11-03T05:32:11.987Z,2.75
2022-11-03T05:34:43.966Z,3.03
2022-11-03T05:37:27.153Z,2.53
2022-11-03T05:39:59.790Z,2.40
2022-11-03T05:42:35.358Z,2.78
2022-11-03T05:45:16.778Z,2.85
2022-11-03T05:47:45.260Z,2.70
2022-11-03T05:50:21.138Z,3.42
2022-11-03T05:52:52.613Z,2.72
2022-11-03T05:55:28.950Z,3.05
2022-11-03T05:57:59.867Z,2.70
2022-11-03T06:00:33.108Z,2.92
2022-11-03T06:03:02.586Z,3.00
2022-11-03T06:05:33.474Z,2.47
2022-11-03T06:08:05.287Z,2.75
2022-11-03T06:10:40.268Z,3.28
2022-11-03T06:13:15.255Z,3.03
2022-11-03T06:15:47.922Z,2.58
2022-11-03T06:18:20.087Z,3.08
2022-11-03T06:20:53.975Z,2.95
2022-11-03T06:23:23.708Z,2.60
2022-11-03T06:25:53.975Z,3.17
2022-11-03T06:28:31.340Z,3.00
2022-11-03T06:31:01.531Z,2.70
2022-11-03T06:33:34.628Z,2.65
2022-11-03T06:36:11.928Z,2.50
2022-11-03T06:38:43.732Z,2.50
2022-11-03T06:41:19.139Z,2.83
2022-11-03T06:43:48.041Z,3.38
2022-11-03T06:46:24.710Z,2.67
2022-11-03T06:48:55.020Z,3.67
2022-11-03T06:51:25.228Z,2.83
2022-11-03T06:53:55.302Z,3.15
2022-11-03T06:56:26.051Z,2.90
2022-11-03T06:58:56.078Z,2.75
2022-11-03T07:01:32.363Z,3.17
2022-11-03T07:04:03.405Z,3.30
2022-11-03T07:06:36.507Z,3.17
2022-11-03T07:09:09.816Z,2.70
2022-11-03T07:11:47.542Z,3.45
2022-11-03T07:14:19.630Z,3.55
2022-11-03T07:16:51.260Z,2.90
2022-11-03T07:19:23.008Z,2.47
2022-11-03T07:21:53.852Z,2.78
2022-11-03T07:24:26.679Z,3.30
2022-11-03T07:27:01.039Z,2.70
2022-11-03T07:29:32.194Z,2.97
2022-11-03T07:32:02.164Z,2.92
2022-11-03T07:34:33.743Z,3.63
2022-11-03T07:37:03.783Z,2.60
2022-11-03T07:39:37.089Z,2.58
2022-11-03T07:42:14.936Z,2.90
2022-11-03T07:44:43.466Z,3.15
2022-11-03T07:47:16.871Z,2.60
2022-11-03T07:49:46.153Z,2.53
2022-11-03T07:52:17.297Z,2.70
2022-11-03T07:54:45.902Z,3.38
2022-11-03T07:57:20.054Z,2.65
2022-11-03T07:59:50.407Z,2.80
2022-11-03T08:02:30.825Z,2.45
2022-11-03T08:04:59.589Z,2.03
2022-11-03T08:07:28.438Z,2.30
2022-11-03T08:09:57.441Z,2.85
2022-11-03T08:12:26.241Z,1.75
2022-11-03T08:14:54.766Z,2.30
2022-11-03T08:17:24.635Z,2.47
2022-11-03T08:19:53.284Z,2.47
2022-11-03T08:22:23.136Z,2.50
2022-11-03T08:24:51.673Z,2.33
2022-11-03T08:27:20.447Z,2.40
2022-11-03T08:29:49.091Z,2.28
2022-11-03T08:32:17.654Z,2.85
2022-11-03T08:34:47.522Z,2.28
2022-11-03T08:37:15.998Z,2.63
2022-11-03T08:39:44.496Z,2.22
2022-11-03T08:42:13.044Z,2.58
2022-11-03T08:44:41.538Z,2.63
2022-11-03T08:47:10.046Z,2.65
2022-11-03T08:49:38.647Z,3.00
2022-11-03T08:52:08.487Z,2.47
2022-11-03T08:54:37.018Z,2.40
2022-11-03T08:57:05.510Z,2.58
2022-11-03T08:59:34.157Z,2.55
2022-11-03T09:02:02.838Z,2.65
2022-11-03T09:04:31.462Z,2.38
2022-11-03T09:06:59.979Z,2.28
2022-11-03T09:12:19.331Z,2.95
2022-11-03T09:14:48.095Z,2.35
2022-11-03T09:17:16.602Z,2.28
2022-11-03T09:19:45.259Z,2.47
2022-11-03T09:22:13.853Z,2.53
2022-11-03T09:24:44.072Z,2.88
2022-11-03T09:27:12.584Z,2.58
2022-11-03T09:30:06.983Z,2.58
2022-11-03T09:32:29.765Z,2.30
2022-11-03T09:34:58.234Z,2.25
2022-11-03T09:37:27.560Z,3.20
2022-11-03T09:39:58.083Z,2.35
2022-11-03T09:42:27.189Z,1.90
2022-11-03T09:44:56.530Z,2.63
2022-11-03T09:47:29.329Z,2.70
2022-11-03T09:49:58.783Z,2.42
2022-11-03T09:52:27.374Z,1.88
2022-11-03T09:54:57.867Z,2.28
2022-11-03T09:57:28.646Z,2.40
2022-11-03T09:59:57.299Z,2.50
2022-11-03T10:02:29.427Z,2.00
2022-11-03T10:05:01.823Z,2.00
2022-11-03T10:07:32.588Z,2.35
2022-11-03T10:10:02.569Z,2.67
2022-11-03T10:12:33.359Z,2.28
2022-11-03T10:15:02.108Z,2.10
2022-11-03T10:17:32.268Z,2.38
2022-11-03T10:20:02.761Z,2.67
2022-11-03T10:22:31.341Z,2.70
2022-11-03T10:25:29.793Z,2.60
2022-11-03T10:28:23.120Z,2.55
2022-11-03T10:31:10.773Z,2.10
2022-11-03T10:33:42.322Z,2.50
2022-11-03T10:36:25.057Z,2.10
2022-11-03T10:38:54.012Z,2.28
2022-11-03T10:41:25.238Z,1.77
2022-11-03T10:44:02.707Z,2.00
2022-11-03T10:49:21.507Z,2.60
2022-11-03T10:51:52.079Z,2.05
2022-11-03T10:54:22.590Z,2.10
2022-11-03T10:56:53.531Z,2.15
2022-11-03T10:59:25.358Z,2.13
2022-11-03T11:01:54.098Z,2.33
2022-11-03T11:04:22.837Z,2.00
2022-11-03T11:06:52.604Z,2.05
2022-11-03T11:09:25.574Z,2.17
2022-11-03T11:12:05.287Z,2.22
2022-11-03T11:14:39.452Z,2.00
2022-11-03T11:17:44.528Z,2.10
2022-11-03T11:20:30.280Z,2.70
2022-11-03T11:23:49.115Z,3.05
2022-11-03T11:26:32.774Z,2.60
2022-11-03T11:29:43.859Z,2.20
2022-11-03T11:32:51.893Z,2.55
2022-11-03T11:36:00.334Z,2.60
2022-11-03T11:39:02.951Z,2.38
2022-11-03T11:42:07.420Z,2.45
2022-11-03T11:44:59.223Z,2.40
2022-11-03T11:47:41.384Z,2.30
2022-11-03T11:50:27.898Z,2.75
2022-11-03T11:53:19.625Z,2.42
2022-11-03T11:55:58.793Z,2.00
2022-11-03T11:58:39.531Z,2.45
2022-11-03T12:01:22.523Z,2.50
2022-11-03T12:03:52.892Z,2.35
2022-11-03T12:06:34.374Z,2.78
2022-11-03T12:09:07.436Z,2.38
2022-11-03T12:11:45.893Z,2.60
2022-11-03T12:14:27.809Z,2.33
2022-11-03T12:16:59.789Z,2.83
2022-11-03T12:19:40.247Z,3.00
2022-11-03T12:22:11.008Z,2.90
2022-11-03T12:24:51.322Z,3.30
2022-11-03T12:27:41.193Z,2.70
2022-11-03T12:30:17.599Z,2.80
2022-11-03T12:32:46.342Z,2.95
2022-11-03T12:35:15.273Z,2.90
2022-11-03T12:37:43.817Z,3.00
2022-11-03T12:40:14.489Z,3.30
2022-11-03T12:42:43.113Z,2.65
2022-11-03T12:45:13.608Z,2.95
2022-11-03T12:47:43.859Z,2.90
2022-11-03T12:50:12.448Z,2.40
2022-11-03T12:52:41.000Z,2.70
2022-11-03T12:55:10.157Z,2.60
2022-11-03T12:57:41.082Z,2.55
2022-11-03T13:00:10.768Z,2.50
2022-11-03T13:02:39.580Z,2.67
2022-11-03T13:05:10.778Z,2.65
2022-11-03T13:07:40.515Z,2.75
2022-11-03T13:10:09.781Z,1.92
2022-11-03T13:12:41.438Z,3.33
2022-11-03T13:15:13.455Z,2.28
2022-11-03T13:20:33.217Z,2.38
2022-11-03T13:23:01.928Z,2.47
2022-11-03T13:25:30.577Z,2.35
2022-11-03T13:27:59.649Z,2.00
2022-11-03T13:30:28.481Z,2.90
2022-11-03T13:32:57.197Z,2.50
2022-11-03T13:35:25.802Z,3.13
2022-11-03T13:37:55.650Z,2.75
2022-11-03T13:43:12.854Z,2.80
2022-11-03T13:45:41.394Z,2.60
2022-11-03T13:51:00.087Z,2.70
2022-11-03T13:56:22.110Z,2.83
2022-11-03T14:01:41.132Z,2.80
2022-11-03T14:06:59.300Z,2.60
2022-11-03T14:09:29.144Z,2.78
2022-11-03T14:12:15.070Z,3.00
2022-11-03T14:14:43.771Z,2.60
2022-11-03T14:17:12.449Z,2.90
2022-11-03T14:19:46.022Z,3.60
2022-11-03T14:22:16.142Z,3.13
2022-11-03T14:24:46.024Z,2.80
2022-11-03T14:27:15.788Z,2.88
2022-11-03T14:29:44.600Z,2.78
2022-11-03T14:32:13.564Z,2.75
2022-11-03T14:34:42.273Z,3.38
2022-11-03T14:37:11.394Z,2.90
2022-11-03T14:39:40.726Z,3.50
2022-11-03T14:42:15.176Z,3.08
2022-11-03T14:44:45.740Z,3.03
2022-11-03T14:47:17.540Z,3.22
2022-11-03T14:49:46.835Z,3.20
2022-11-03T14:52:16.916Z,2.85
2022-11-03T14:54:45.546Z,2.60
2022-11-03T14:57:15.405Z,3.00
2022-11-03T14:59:46.626Z,2.58
2022-11-03T15:02:16.711Z,2.53
2022-11-03T15:04:45.364Z,3.05
2022-11-03T15:07:13.936Z,2.65
2022-11-03T15:09:42.439Z,3.13
2022-11-03T15:12:10.940Z,3.03
2022-11-03T15:14:40.826Z,3.03
2022-11-03T15:17:11.817Z,3.10
2022-11-03T15:19:40.527Z,2.95
2022-11-03T15:22:09.088Z,2.65
2022-11-03T15:27:26.689Z,3.15
2022-11-03T15:29:56.695Z,3.03
2022-11-03T15:32:25.268Z,2.33
2022-11-03T15:34:53.907Z,2.70
2022-11-03T15:37:22.411Z,3.35
2022-11-03T15:39:53.619Z,3.03
2022-11-03T15:42:24.535Z,2.80
2022-11-03T15:44:53.054Z,3.05
2022-11-03T15:47:24.815Z,2.85
2022-11-03T15:49:53.477Z,2.60
2022-11-03T15:52:22.003Z,3.47
2022-11-03T15:54:50.648Z,2.55
2022-11-03T15:57:19.511Z,3.13
2022-11-03T15:59:47.989Z,2.90
2022-11-03T16:02:35.427Z,2.92
2022-11-03T16:05:07.158Z,2.95
2022-11-03T16:07:35.791Z,2.65
2022-11-03T16:10:05.435Z,3.25
2022-11-03T16:12:35.995Z,2.80
2022-11-03T16:15:04.955Z,4.00
2022-11-03T16:17:33.557Z,2.60
2022-11-03T16:20:02.125Z,2.92
2022-11-03T16:22:32.180Z,2.83
2022-11-03T16:25:00.890Z,3.03
2022-11-03T16:27:29.371Z,3.17
2022-11-03T16:29:57.945Z,3.45
2022-11-03T16:32:26.521Z,3.00
2022-11-03T16:34:55.028Z,2.63
2022-11-03T16:37:27.450Z,2.65
2022-11-03T16:39:57.287Z,2.60
2022-11-03T16:42:25.923Z,3.15
2022-11-03T16:44:55.428Z,3.10
2022-11-03T16:47:26.896Z,3.10
2022-11-03T16:49:55.392Z,2.95
2022-11-03T16:52:23.921Z,2.83
2022-11-03T16:54:52.576Z,2.75
2022-11-03T16:57:22.629Z,2.92
2022-11-03T16:59:51.517Z,2.95
2022-11-03T17:02:20.120Z,3.10
2022-11-03T17:04:48.642Z,3.38
2022-11-03T17:07:17.157Z,3.17
2022-11-03T17:09:45.644Z,3.50
2022-11-03T17:12:14.208Z,3.03
2022-11-03T17:14:44.077Z,3.08
2022-11-03T17:17:12.579Z,3.25
2022-11-03T17:19:41.180Z,2.78
2022-11-03T17:22:09.757Z,3.10
2022-11-03T17:24:38.220Z,3.05
2022-11-03T17:27:14.467Z,3.22
2022-11-03T17:29:47.755Z,3.40
2022-11-03T17:32:21.946Z,3.20
2022-11-03T17:34:50.589Z,3.20
2022-11-03T17:37:19.184Z,3.20
2022-11-03T17:39:47.762Z,3.00
2022-11-03T17:42:18.803Z,3.38
2022-11-03T17:44:50.078Z,3.38
2022-11-03T17:47:19.705Z,3.15
2022-11-03T17:49:49.125Z,2.78
2022-11-03T17:52:24.911Z,2.85
2022-11-03T17:54:59.919Z,3.88
2022-11-03T17:57:28.730Z,3.65
2022-11-03T18:00:00.403Z,2.80
2022-11-03T18:02:32.148Z,2.97
2022-11-03T18:05:16.789Z,3.08
2022-11-03T18:07:47.175Z,2.67
2022-11-03T18:10:15.804Z,3.10
2022-11-03T18:13:03.925Z,3.70
2022-11-03T18:15:36.656Z,3.30
2022-11-03T18:18:13.513Z,2.92
2022-11-03T18:20:52.705Z,3.22
2022-11-03T18:23:24.942Z,3.47
2022-11-03T18:25:54.362Z,2.97
2022-11-03T18:28:23.216Z,3.03
2022-11-03T18:30:55.609Z,3.00
2022-11-03T18:33:26.396Z,3.10
2022-11-03T18:35:55.590Z,2.97
2022-11-03T18:38:25.591Z,3.05
2022-11-03T18:40:54.183Z,3.55
2022-11-03T18:43:24.675Z,3.65
2022-11-03T18:45:54.704Z,3.20
2022-11-03T18:48:24.125Z,3.38
2022-11-03T18:50:54.729Z,3.53
2022-11-03T18:53:24.819Z,3.60
2022-11-03T18:55:57.650Z,3.28
2022-11-03T18:58:26.845Z,3.45
2022-11-03T19:00:56.766Z,3.15
2022-11-03T19:03:25.472Z,3.97
2022-11-03T19:05:54.248Z,3.85
2022-11-03T19:08:26.633Z,3.28
2022-11-03T19:10:56.525Z,3.33
2022-11-03T19:13:29.582Z,3.88
2022-11-03T19:16:00.695Z,3.83
2022-11-03T19:18:32.955Z,3.88
2022-11-03T19:21:01.499Z,3.80
2022-11-03T19:23:30.033Z,4.38
2022-11-03T19:26:00.687Z,3.95
2022-11-03T19:28:32.217Z,4.53
2022-11-03T19:31:02.732Z,3.85
2022-11-03T19:33:32.245Z,4.63
2022-11-03T19:36:01.466Z,4.55
2022-11-03T19:38:30.009Z,5.28
2022-11-03T19:41:15.881Z,5.57
2022-11-03T19:43:44.635Z,5.70
2022-11-03T19:46:19.915Z,4.55
2022-11-03T19:48:48.696Z,5.20
2022-11-03T19:51:17.228Z,4.95
2022-11-03T19:53:47.337Z,5.20
2022-11-03T19:56:17.345Z,4.50
2022-11-03T19:58:45.857Z,4.80
2022-11-03T20:01:15.781Z,5.18
2022-11-03T20:03:44.879Z,5.30
2022-11-03T20:06:18.212Z,5.07
2022-11-03T20:08:48.322Z,5.03
2022-11-03T20:11:16.881Z,5.93
2022-11-03T20:13:45.496Z,4.25
2022-11-03T20:16:17.032Z,4.70
2022-11-03T20:18:45.590Z,4.75
2022-11-03T20:21:16.940Z,4.13
2022-11-03T20:23:47.172Z,4.93
2022-11-03T20:26:19.864Z,4.30
2022-11-03T20:28:48.708Z,4.20
2022-11-03T20:31:19.098Z,4.13
2022-11-03T20:33:47.623Z,4.57
2022-11-03T20:36:18.896Z,4.88
2022-11-03T20:38:51.495Z,4.45
2022-11-03T20:41:20.399Z,4.70
2022-11-03T20:43:49.646Z,4.63
2022-11-03T20:46:23.992Z,3.83
2022-11-03T20:48:53.037Z,4.00
2022-11-03T20:51:24.616Z,4.70
2022-11-03T20:53:53.459Z,4.30
2022-11-03T20:56:24.415Z,4.03
2022-11-03T20:58:53.006Z,3.90
2022-11-03T21:01:26.839Z,3.97
2022-11-03T21:04:00.220Z,4.60
2022-11-03T21:06:31.072Z,3.78
2022-11-03T21:09:00.124Z,3.80
2022-11-03T21:11:31.113Z,3.42
2022-11-03T21:14:01.542Z,3.92
2022-11-03T21:16:48.901Z,3.15
2022-11-03T21:19:36.276Z,3.25
2022-11-03T21:22:31.007Z,2.72
2022-11-03T21:25:03.086Z,3.05
2022-11-03T21:27:31.560Z,2.53
2022-11-03T21:30:00.652Z,2.00
2022-11-03T21:32:30.679Z,1.90
2022-11-03T21:35:01.649Z,2.25
2022-11-03T21:37:30.237Z,2.42
2022-11-03T21:39:58.890Z,1.90
2022-11-03T21:42:45.129Z,1.60
2022-11-03T21:45:14.659Z,1.88
2022-11-03T21:48:07.520Z,1.80
2022-11-03T21:50:39.711Z,2.28
2022-11-03T21:53:09.115Z,2.05
2022-11-03T21:55:38.078Z,1.67
2022-11-03T21:58:06.870Z,1.98
2022-11-03T22:00:35.601Z,1.70
2022-11-03T22:03:05.909Z,1.67
2022-11-03T22:05:34.736Z,1.70
2022-11-03T22:08:03.220Z,1.30
2022-11-03T22:10:31.902Z,1.65
2022-11-03T22:13:00.419Z,1.50
2022-11-03T22:15:46.773Z,1.50
2022-11-03T22:18:16.719Z,1.55
2022-11-03T22:21:02.784Z,1.45
2022-11-03T22:23:48.668Z,1.20
2022-11-03T22:26:35.300Z,1.23
2022-11-03T22:29:20.730Z,1.40
2022-11-03T22:31:49.443Z,1.38
2022-11-03T22:34:37.008Z,1.35
2022-11-03T22:37:05.504Z,1.00
2022-11-03T22:39:51.509Z,0.93
2022-11-03T22:42:38.008Z,1.08
2022-11-03T22:45:24.006Z,1.27
2022-11-03T22:47:57.312Z,1.02
2022-11-03T22:50:27.627Z,1.10
2022-11-03T22:52:56.207Z,1.00
2022-11-03T22:55:23.767Z,1.25
2022-11-03T22:57:52.859Z,1.05
2022-11-03T23:00:22.527Z,0.70
2022-11-03T23:02:54.416Z,0.85
2022-11-03T23:05:22.896Z,0.95
2022-11-03T23:07:52.856Z,0.77
2022-11-03T23:10:28.126Z,0.88
2022-11-03T23:12:56.614Z,0.77
2022-11-03T23:15:34.217Z,0.60
2022-11-03T23:18:21.846Z,0.93
2022-11-03T23:21:08.604Z,0.70
2022-11-03T23:23:57.320Z,0.80
2022-11-03T23:26:27.752Z,0.73
2022-11-03T23:28:56.295Z,0.70
2022-11-03T23:31:24.812Z,0.70
2022-11-03T23:33:53.552Z,0.65
2022-11-03T23:36:22.118Z,0.50
2022-11-03T23:38:52.053Z,0.73
2022-11-03T23:41:20.765Z,0.75
2022-11-03T23:43:49.548Z,0.60
2022-11-03T23:46:36.650Z,0.70
2022-11-03T23:49:05.310Z,0.70
2022-11-03T23:51:35.686Z,0.68
2022-11-03T23:54:07.275Z,0.60
2022-11-03T23:56:55.390Z,0.75
2022-11-03T23:59:24.622Z,0.70
